createdAt,value
2017-08-19T00:00:26.530Z,100.00
2017-08-19T00:01:26.600Z,100.00
2017-08-19T00:02:26.544Z,100.00
2017-08-19T00:03:27.986Z,100.00
2017-08-19T00:04:26.815Z,100.00
2017-08-19T00:05:26.511Z,100.00
2017-08-19T00:06:26.687Z,100.00
2017-08-19T00:07:26.538Z,100.00
2017-08-19T00:08:26.585Z,100.00
2017-08-19T00:09:26.137Z,100.00
2017-08-19T00:10:26.220Z,100.00
2017-08-19T00:11:27.171Z,100.00
2017-08-19T00:12:26.209Z,100.00
2017-08-19T00:13:26.146Z,100.00
2017-08-19T00:14:26.190Z,100.00
2017-08-19T00:15:26.191Z,100.00
2017-08-19T00:16:26.327Z,100.00
2017-08-19T00:17:26.170Z,100.00
2017-08-19T00:18:26.606Z,100.00
2017-08-19T00:19:26.637Z,100.00
2017-08-19T00:20:26.594Z,100.00
2017-08-19T00:21:26.550Z,100.00
2017-08-19T00:22:26.694Z,100.00
2017-08-19T00:23:26.831Z,100.00
2017-08-19T00:24:26.568Z,100.00
2017-08-19T00:25:26.712Z,100.00
2017-08-19T00:26:26.150Z,100.00
2017-08-19T00:27:26.190Z,100.00
2017-08-19T00:28:26.733Z,100.00
2017-08-19T00:29:26.273Z,100.00
2017-08-19T00:30:26.244Z,100.00
2017-08-19T00:31:26.191Z,100.00
2017-08-19T00:32:26.454Z,100.00
2017-08-19T00:33:26.253Z,100.00
2017-08-19T00:34:26.281Z,100.00
2017-08-19T00:35:26.322Z,100.00
2017-08-19T00:36:26.191Z,100.00
2017-08-19T00:37:26.634Z,100.00
2017-08-19T00:38:26.988Z,100.00
2017-08-19T00:39:26.645Z,100.00
2017-08-19T00:40:26.999Z,100.00
2017-08-19T00:41:26.644Z,100.00
2017-08-19T00:42:27.046Z,100.00
2017-08-19T00:43:26.678Z,100.00
2017-08-19T00:44:26.212Z,100.00
2017-08-19T00:45:26.253Z,100.00
2017-08-19T00:46:27.301Z,100.00
2017-08-19T00:47:26.264Z,100.00
2017-08-19T00:48:26.307Z,100.00
2017-08-19T00:49:26.377Z,100.00
2017-08-19T00:50:26.223Z,100.00
2017-08-19T00:51:26.271Z,100.00
2017-08-19T00:52:26.216Z,100.00
2017-08-19T00:53:26.765Z,100.00
2017-08-19T00:54:26.702Z,100.00
2017-08-19T00:55:26.678Z,100.00
2017-08-19T00:56:27.412Z,100.00
2017-08-19T00:57:26.250Z,100.00
2017-08-19T00:58:26.697Z,100.00
2017-08-19T00:59:26.639Z,100.00
2017-08-19T03:49:55.855Z,100.00
2017-08-19T03:52:00.543Z,100.00
2017-08-19T03:52:01.658Z,100.00
2017-08-19T03:52:02.272Z,100.00
2017-08-19T03:52:02.881Z,100.00
2017-08-19T03:52:03.489Z,100.00
2017-08-19T03:52:04.201Z,100.00
2017-08-19T03:52:26.757Z,100.00
2017-08-19T03:53:27.197Z,100.00
2017-08-19T03:54:27.214Z,100.00
2017-08-19T03:55:27.262Z,100.00
2017-08-19T03:56:27.206Z,100.00
2017-08-19T03:57:27.157Z,100.00
2017-08-19T03:58:27.218Z,100.00
2017-08-19T03:59:27.179Z,100.00
2017-08-19T04:00:27.573Z,100.00
2017-08-19T04:01:27.213Z,100.00
2017-08-19T04:02:26.853Z,100.00
2017-08-19T04:03:26.815Z,100.00
2017-08-19T04:04:26.772Z,100.00
2017-08-19T04:05:26.852Z,100.00
2017-08-19T04:06:26.808Z,100.00
2017-08-19T04:07:26.854Z,100.00
2017-08-19T04:08:26.798Z,100.00
2017-08-19T04:09:27.250Z,100.00
2017-08-19T04:10:27.189Z,100.00
2017-08-19T04:11:27.222Z,100.00
2017-08-19T04:12:27.300Z,100.00
2017-08-19T04:13:27.238Z,100.00
2017-08-19T04:14:27.200Z,100.00
2017-08-19T04:15:27.371Z,100.00
2017-08-19T04:16:27.360Z,100.00
2017-08-19T04:17:27.212Z,100.00
2017-08-19T04:18:27.293Z,100.00
2017-08-19T04:19:26.825Z,100.00
2017-08-19T04:20:26.900Z,100.00
2017-08-19T04:21:26.844Z,100.00
2017-08-19T04:22:26.905Z,100.00
2017-08-19T04:23:26.875Z,100.00
2017-08-19T04:24:26.843Z,100.00
2017-08-19T04:25:26.839Z,100.00
2017-08-19T04:26:27.221Z,100.00
2017-08-19T04:27:26.881Z,100.00
2017-08-19T04:28:27.262Z,100.00
2017-08-19T04:29:27.259Z,100.00
2017-08-19T04:30:27.356Z,100.00
2017-08-19T04:31:27.425Z,100.00
2017-08-19T04:32:27.392Z,100.00
2017-08-19T04:33:27.402Z,100.00
2017-08-19T04:34:27.336Z,100.00
2017-08-19T04:35:27.528Z,100.00
2017-08-19T04:36:27.407Z,100.00
2017-08-19T04:37:27.473Z,100.00
2017-08-19T04:38:26.950Z,100.00
2017-08-19T04:39:26.936Z,100.00
2017-08-19T04:40:26.882Z,100.00
2017-08-19T04:41:26.963Z,100.00
2017-08-19T04:42:26.950Z,100.00
2017-08-19T04:43:26.910Z,100.00
2017-08-19T04:44:26.894Z,100.00
2017-08-19T04:45:27.293Z,100.00
2017-08-19T04:46:27.445Z,100.00
2017-08-19T04:47:27.383Z,100.00
2017-08-19T04:48:27.425Z,100.00
2017-08-19T04:49:27.373Z,100.00
2017-08-19T04:50:27.768Z,100.00
2017-08-19T04:51:27.346Z,100.00
2017-08-19T04:52:27.421Z,100.00
2017-08-19T04:53:27.397Z,100.00
2017-08-19T04:54:27.393Z,100.00
2017-08-19T04:55:26.908Z,100.00
2017-08-19T04:56:27.012Z,100.00
2017-08-19T04:57:27.013Z,100.00
2017-08-19T04:58:27.018Z,100.00
2017-08-19T04:59:27.009Z,100.00
2017-08-19T05:00:27.007Z,100.00
2017-08-19T05:01:26.972Z,100.00
2017-08-19T05:02:27.015Z,100.00
2017-08-19T05:03:26.978Z,100.00
2017-08-19T05:04:27.384Z,100.00
2017-08-19T05:05:27.353Z,100.00
2017-08-19T05:06:27.408Z,100.00
2017-08-19T05:07:27.484Z,100.00
2017-08-19T05:08:27.372Z,100.00
2017-08-19T05:09:27.417Z,100.00
2017-08-19T05:10:27.419Z,100.00
2017-08-19T05:11:27.453Z,100.00
2017-08-19T05:12:27.507Z,100.00
2017-08-19T05:13:27.569Z,100.00
2017-08-19T05:14:27.013Z,100.00
2017-08-19T05:15:27.019Z,100.00
2017-08-19T05:16:26.996Z,100.00
2017-08-19T05:17:27.050Z,100.00
2017-08-19T05:18:26.993Z,100.00
2017-08-19T05:19:27.098Z,100.00
2017-08-19T05:20:27.086Z,100.00
2017-08-19T05:21:27.082Z,100.00
2017-08-19T05:22:27.062Z,100.00
2017-08-19T05:23:27.027Z,100.00
2017-08-19T05:24:27.499Z,100.00
2017-08-19T05:25:27.469Z,100.00
2017-08-19T05:26:27.439Z,100.00
2017-08-19T05:27:27.720Z,100.00
2017-08-19T05:28:27.727Z,100.00
2017-08-19T05:29:27.452Z,100.00
2017-08-19T05:30:27.012Z,100.00
2017-08-19T05:31:27.052Z,100.00
2017-08-19T05:32:27.104Z,100.00
2017-08-19T05:33:27.034Z,100.00
2017-08-19T05:34:27.092Z,100.00
2017-08-19T05:35:27.048Z,100.00
2017-08-19T05:36:27.100Z,100.00
2017-08-19T05:37:27.057Z,100.00
2017-08-19T05:38:27.131Z,100.00
2017-08-19T05:39:27.116Z,100.00
2017-08-19T05:40:27.604Z,100.00
2017-08-19T05:41:27.492Z,100.00
2017-08-19T05:42:27.488Z,100.00
2017-08-19T05:43:27.490Z,100.00
2017-08-19T05:44:27.479Z,100.00
2017-08-19T05:45:27.486Z,100.00
2017-08-19T05:46:27.559Z,100.00
2017-08-19T05:47:27.515Z,100.00
2017-08-19T05:48:27.648Z,100.00
2017-08-19T05:49:27.071Z,100.00
2017-08-19T05:50:27.607Z,100.00
2017-08-19T05:51:27.110Z,100.00
2017-08-19T05:52:27.125Z,100.00
2017-08-19T05:53:27.109Z,100.00
2017-08-19T05:54:27.088Z,100.00
2017-08-19T05:55:27.144Z,100.00
2017-08-19T05:56:27.092Z,100.00
2017-08-19T05:57:27.646Z,100.00
2017-08-19T05:58:27.542Z,100.00
2017-08-19T05:59:27.582Z,100.00
2017-08-19T06:00:27.559Z,100.00
2017-08-19T06:01:27.520Z,100.00
2017-08-19T06:02:27.626Z,100.00
2017-08-19T06:03:27.534Z,100.00
2017-08-19T06:04:27.597Z,100.00
2017-08-19T06:05:27.582Z,100.00
2017-08-19T06:06:27.629Z,100.00
2017-08-19T06:07:27.638Z,100.00
2017-08-19T06:08:27.171Z,100.00
2017-08-19T06:09:27.176Z,100.00
2017-08-19T06:10:27.247Z,100.00
2017-08-19T06:11:27.180Z,100.00
2017-08-19T06:12:27.158Z,100.00
2017-08-19T06:13:27.269Z,100.00
2017-08-19T06:14:27.229Z,100.00
2017-08-19T06:15:27.157Z,99.35
2017-08-19T06:16:27.596Z,100.00
2017-08-19T06:17:27.592Z,100.00
2017-08-19T06:18:27.598Z,100.00
2017-08-19T06:19:27.580Z,100.00
2017-08-19T06:20:27.606Z,100.00
2017-08-19T06:21:27.563Z,100.00
2017-08-19T06:22:27.633Z,100.00
2017-08-19T06:23:27.614Z,100.00
2017-08-19T06:24:27.207Z,99.41
2017-08-19T06:25:27.190Z,99.26
2017-08-19T06:26:27.263Z,100.00
2017-08-19T06:27:27.242Z,100.00
2017-08-19T06:28:27.214Z,100.00
2017-08-19T06:29:27.188Z,100.00
2017-08-19T06:30:27.542Z,100.00
2017-08-19T06:31:27.270Z,100.00
2017-08-19T06:32:27.237Z,100.00
2017-08-19T06:33:27.193Z,100.00
2017-08-19T06:34:27.624Z,99.00
2017-08-19T06:35:27.715Z,99.25
2017-08-19T06:36:27.734Z,97.77
2017-08-19T06:37:27.658Z,98.08
2017-08-19T06:38:27.709Z,99.44
2017-08-19T06:39:27.695Z,99.19
2017-08-19T06:40:27.628Z,98.87
2017-08-19T06:41:27.755Z,98.86
2017-08-19T06:42:27.708Z,97.48
2017-08-19T06:43:27.712Z,99.03
2017-08-19T06:44:27.232Z,98.93
2017-08-19T06:45:27.336Z,98.90
2017-08-19T06:46:27.369Z,98.58
2017-08-19T06:47:27.314Z,97.43
2017-08-19T06:48:27.244Z,94.86
2017-08-19T06:49:27.243Z,94.60
2017-08-19T06:50:27.686Z,95.07
2017-08-19T06:51:27.758Z,94.04
2017-08-19T06:52:27.720Z,93.74
2017-08-19T06:53:27.719Z,95.01
2017-08-19T06:54:27.843Z,99.54
2017-08-19T06:55:27.700Z,99.03
2017-08-19T06:56:27.754Z,98.38
2017-08-19T06:57:27.678Z,96.92
2017-08-19T06:58:27.732Z,94.73
2017-08-19T06:59:27.850Z,96.12
2017-08-19T07:00:27.724Z,94.26
2017-08-19T07:01:27.765Z,95.86
2017-08-19T07:02:27.372Z,97.55
2017-08-19T07:03:27.361Z,98.42
2017-08-19T07:04:27.331Z,96.89
2017-08-19T07:05:27.308Z,97.61
2017-08-19T07:06:27.397Z,97.35
2017-08-19T07:07:27.297Z,98.45
2017-08-19T07:08:27.422Z,97.96
2017-08-19T07:09:27.381Z,99.35
2017-08-19T07:10:27.292Z,99.14
2017-08-19T07:11:27.809Z,98.32
2017-08-19T07:12:27.802Z,98.20
2017-08-19T07:13:27.813Z,96.10
2017-08-19T07:14:27.812Z,97.52
2017-08-19T07:15:27.880Z,97.44
2017-08-19T07:16:27.744Z,100.00
2017-08-19T07:17:27.791Z,99.47
2017-08-19T07:18:27.813Z,98.75
2017-08-19T07:19:27.334Z,97.83
2017-08-19T07:20:27.830Z,97.73
2017-08-19T07:21:27.401Z,98.87
2017-08-19T07:22:27.398Z,100.00
2017-08-19T07:23:27.470Z,97.45
2017-08-19T07:24:27.441Z,97.28
2017-08-19T07:25:27.426Z,97.15
2017-08-19T07:26:27.369Z,97.74
2017-08-19T07:27:27.403Z,99.79
2017-08-19T07:28:27.851Z,97.65
2017-08-19T07:29:27.858Z,97.00
2017-08-19T07:30:27.849Z,98.60
2017-08-19T07:31:27.954Z,98.47
2017-08-19T07:32:27.879Z,100.00
2017-08-19T07:33:27.845Z,99.25
2017-08-19T07:34:27.862Z,98.46
2017-08-19T07:35:27.895Z,98.58
2017-08-19T07:36:27.862Z,100.00
2017-08-19T07:37:27.854Z,92.53
2017-08-19T07:38:27.862Z,95.94
2017-08-19T07:39:27.458Z,96.27
2017-08-19T07:40:27.488Z,96.04
2017-08-19T07:41:27.386Z,95.57
2017-08-19T07:42:27.444Z,97.16
2017-08-19T07:43:27.483Z,96.55
2017-08-19T07:44:27.428Z,96.55
2017-08-19T07:45:27.536Z,97.33
2017-08-19T07:46:27.409Z,96.11
2017-08-19T07:47:27.841Z,97.71
2017-08-19T07:48:35.025Z,96.95
2017-08-19T07:49:27.454Z,96.25
2017-08-19T07:50:27.936Z,96.40
2017-08-19T07:51:27.898Z,94.35
2017-08-19T07:52:27.882Z,94.92
2017-08-19T07:53:27.906Z,93.97
2017-08-19T07:54:27.940Z,93.10
2017-08-19T07:55:27.500Z,90.95
2017-08-19T07:56:27.482Z,91.64
2017-08-19T07:57:27.559Z,86.53
2017-08-19T07:58:27.506Z,90.69
2017-08-19T07:59:27.480Z,92.28
2017-08-19T08:00:27.470Z,90.59
2017-08-19T08:01:27.468Z,88.51
2017-08-19T08:02:27.933Z,86.29
2017-08-19T08:03:27.902Z,87.33
2017-08-19T08:04:27.916Z,88.24
2017-08-19T08:05:27.991Z,88.10
2017-08-19T08:06:27.924Z,88.63
2017-08-19T08:07:27.904Z,90.59
2017-08-19T08:08:27.918Z,92.36
2017-08-19T08:09:27.909Z,89.86
2017-08-19T08:10:28.018Z,90.81
2017-08-19T08:11:27.922Z,92.17
2017-08-19T08:12:27.541Z,93.30
2017-08-19T08:13:27.619Z,92.14
2017-08-19T08:14:27.485Z,93.70
2017-08-19T08:15:27.571Z,92.76
2017-08-19T08:16:27.553Z,93.61
2017-08-19T08:17:27.544Z,94.03
2017-08-19T08:18:27.629Z,94.41
2017-08-19T08:19:27.518Z,93.07
2017-08-19T08:20:28.081Z,92.96
2017-08-19T08:21:27.966Z,92.93
2017-08-19T08:22:27.989Z,89.79
2017-08-19T08:23:28.264Z,90.39
2017-08-19T08:24:27.944Z,92.81
2017-08-19T08:25:27.930Z,91.08
2017-08-19T08:26:28.030Z,90.51
2017-08-19T08:27:27.981Z,88.54
2017-08-19T08:28:27.583Z,88.12
2017-08-19T08:29:27.572Z,89.17
2017-08-19T08:30:27.581Z,86.71
2017-08-19T08:31:27.573Z,86.97
2017-08-19T08:32:27.604Z,86.42
2017-08-19T08:33:27.810Z,85.03
2017-08-19T08:34:27.635Z,87.18
2017-08-19T08:35:27.757Z,84.98
2017-08-19T08:36:27.575Z,86.53
2017-08-19T08:37:27.982Z,86.01
2017-08-19T08:38:27.989Z,81.49
2017-08-19T08:39:27.972Z,79.60
2017-08-19T08:40:28.005Z,79.24
2017-08-19T08:41:28.019Z,78.83
2017-08-19T08:42:27.962Z,80.23
2017-08-19T08:43:28.303Z,78.52
2017-08-19T08:44:28.042Z,79.32
2017-08-19T08:45:28.169Z,74.98
2017-08-19T08:46:27.668Z,74.15
2017-08-19T08:47:27.591Z,71.44
2017-08-19T08:48:27.594Z,75.16
2017-08-19T08:49:27.653Z,74.57
2017-08-19T08:50:27.731Z,71.17
2017-08-19T08:51:27.684Z,75.19
2017-08-19T08:52:27.593Z,72.15
2017-08-19T08:53:27.997Z,69.00
2017-08-19T08:54:28.012Z,72.41
2017-08-19T08:55:28.097Z,73.44
2017-08-19T08:56:28.094Z,71.55
2017-08-19T08:57:28.190Z,69.19
2017-08-19T08:58:28.058Z,69.46
2017-08-19T08:59:28.013Z,76.79
2017-08-19T09:00:28.373Z,71.20
2017-08-19T09:01:28.196Z,66.95
2017-08-19T09:02:27.718Z,74.06
2017-08-19T09:03:27.637Z,69.70
2017-08-19T09:04:27.723Z,75.36
2017-08-19T09:05:27.813Z,72.29
2017-08-19T09:06:27.712Z,67.14
2017-08-19T09:07:27.726Z,69.61
2017-08-19T09:08:27.700Z,66.71
2017-08-19T09:09:28.156Z,63.31
2017-08-19T09:10:28.125Z,65.43
2017-08-19T09:11:28.131Z,63.46
2017-08-19T09:12:28.137Z,64.10
2017-08-19T09:13:28.183Z,62.40
2017-08-19T09:14:28.071Z,65.42
2017-08-19T09:15:28.435Z,62.36
2017-08-19T09:16:28.155Z,62.93
2017-08-19T09:17:27.688Z,62.28
2017-08-19T09:18:27.729Z,61.64
2017-08-19T09:19:27.756Z,59.45
2017-08-19T09:20:27.782Z,62.22
2017-08-19T09:21:27.803Z,54.67
2017-08-19T09:22:27.699Z,59.63
2017-08-19T09:23:27.711Z,58.52
2017-08-19T09:24:27.850Z,60.57
2017-08-19T09:25:27.726Z,60.57
2017-08-19T09:26:27.771Z,63.72
2017-08-19T09:27:28.469Z,59.19
2017-08-19T09:28:28.135Z,58.79
2017-08-19T09:29:28.158Z,57.58
2017-08-19T09:30:28.196Z,55.14
2017-08-19T09:31:28.158Z,51.28
2017-08-19T09:32:28.337Z,56.57
2017-08-19T09:33:27.730Z,52.11
2017-08-19T09:34:28.224Z,53.60
2017-08-19T09:35:27.811Z,54.09
2017-08-19T09:36:27.740Z,53.42
2017-08-19T09:37:27.925Z,52.62
2017-08-19T09:38:27.804Z,51.56
2017-08-19T09:39:27.780Z,53.62
2017-08-19T09:40:27.797Z,52.79
2017-08-19T09:41:21.011Z,52.79
2017-08-19T09:41:44.577Z,48.96
2017-08-19T09:42:27.850Z,50.00
2017-08-19T09:43:28.265Z,49.02
2017-08-19T09:44:28.462Z,54.68
2017-08-19T09:45:28.207Z,48.20
2017-08-19T09:46:28.307Z,44.64
2017-08-19T09:47:28.264Z,50.95
2017-08-19T09:48:28.265Z,48.45
2017-08-19T09:49:28.243Z,47.09
2017-08-19T09:50:28.243Z,47.76
2017-08-19T09:51:27.859Z,46.17
2017-08-19T09:52:27.859Z,50.33
2017-08-19T09:53:27.788Z,44.55
2017-08-19T09:54:27.792Z,44.31
2017-08-19T09:55:27.798Z,49.69
2017-08-19T09:56:27.908Z,47.72
2017-08-19T09:57:27.824Z,42.97
2017-08-19T09:58:28.249Z,46.84
2017-08-19T09:59:28.303Z,47.10
2017-08-19T10:00:28.216Z,45.18
2017-08-19T10:01:28.304Z,43.85
2017-08-19T10:02:28.445Z,44.54
2017-08-19T10:03:28.295Z,44.72
2017-08-19T10:04:28.269Z,42.86
2017-08-19T10:05:28.355Z,47.27
2017-08-19T10:06:28.290Z,44.83
2017-08-19T10:07:28.322Z,42.38
2017-08-19T10:08:27.812Z,44.15
2017-08-19T10:09:27.865Z,44.22
2017-08-19T10:10:27.863Z,41.83
2017-08-19T10:11:27.872Z,49.96
2017-08-19T10:12:27.968Z,46.12
2017-08-19T10:13:27.840Z,41.75
2017-08-19T10:14:27.898Z,43.45
2017-08-19T10:15:28.255Z,42.65
2017-08-19T10:16:28.318Z,42.16
2017-08-19T10:17:28.367Z,46.22
2017-08-19T10:18:28.278Z,43.37
2017-08-19T10:19:28.384Z,45.35
2017-08-19T10:20:28.364Z,43.26
2017-08-19T10:21:28.373Z,42.35
2017-08-19T10:22:28.586Z,41.30
2017-08-19T10:23:28.368Z,41.68
2017-08-19T10:24:27.893Z,40.80
2017-08-19T10:25:27.983Z,42.48
2017-08-19T10:26:27.966Z,42.40
2017-08-19T10:27:27.962Z,41.92
2017-08-19T10:28:27.964Z,41.58
2017-08-19T10:29:27.983Z,40.75
2017-08-19T10:30:27.981Z,37.01
2017-08-19T10:31:27.961Z,39.13
2017-08-19T10:32:28.657Z,40.78
2017-08-19T10:33:28.320Z,41.42
2017-08-19T10:34:28.367Z,41.31
2017-08-19T10:35:28.333Z,39.64
2017-08-19T10:36:28.370Z,39.63
2017-08-19T10:37:28.312Z,43.45
2017-08-19T10:38:28.363Z,40.50
2017-08-19T10:39:28.429Z,38.15
2017-08-19T10:40:27.915Z,42.75
2017-08-19T10:41:27.929Z,39.12
2017-08-19T10:42:27.923Z,41.11
2017-08-19T10:43:27.923Z,40.06
2017-08-19T10:44:27.995Z,42.61
2017-08-19T10:45:27.996Z,34.85
2017-08-19T10:46:28.015Z,35.20
2017-08-19T10:47:28.013Z,40.64
2017-08-19T10:48:28.008Z,36.42
2017-08-19T10:49:28.445Z,41.28
2017-08-19T10:50:28.554Z,38.16
2017-08-19T10:51:28.407Z,39.39
2017-08-19T10:52:28.536Z,42.36
2017-08-19T10:53:28.370Z,44.11
2017-08-19T10:54:28.402Z,34.70
2017-08-19T10:55:28.452Z,40.65
2017-08-19T10:56:28.007Z,35.29
2017-08-19T10:57:27.975Z,32.30
2017-08-19T10:58:28.036Z,35.66
2017-08-19T10:59:27.982Z,39.28
2017-08-19T11:00:27.980Z,37.97
2017-08-19T11:01:27.999Z,36.33
2017-08-19T11:02:28.025Z,39.10
2017-08-19T11:03:28.063Z,34.55
2017-08-19T11:04:27.974Z,38.07
2017-08-19T11:05:28.490Z,40.52
2017-08-19T11:06:28.501Z,39.15
2017-08-19T11:07:28.399Z,41.03
2017-08-19T11:08:28.585Z,39.85
2017-08-19T11:09:28.506Z,40.33
2017-08-19T11:10:28.470Z,37.31
2017-08-19T11:11:29.545Z,38.01
2017-08-19T11:12:28.048Z,38.07
2017-08-19T11:13:28.492Z,38.99
2017-08-19T11:14:28.060Z,37.56
2017-08-19T11:15:28.055Z,41.36
2017-08-19T11:16:28.073Z,37.29
2017-08-19T11:17:28.094Z,36.48
2017-08-19T11:18:28.121Z,40.25
2017-08-19T11:19:28.087Z,41.22
2017-08-19T11:20:28.032Z,41.87
2017-08-19T11:21:28.565Z,39.72
2017-08-19T11:22:28.480Z,42.38
2017-08-19T11:23:28.450Z,42.34
2017-08-19T11:24:28.553Z,40.58
2017-08-19T11:25:28.433Z,38.36
2017-08-19T11:26:28.603Z,39.27
2017-08-19T11:27:28.467Z,40.50
2017-08-19T11:28:28.592Z,41.39
2017-08-19T11:29:28.074Z,42.96
2017-08-19T11:30:28.124Z,38.43
2017-08-19T11:31:28.631Z,41.77
2017-08-19T11:32:28.120Z,41.98
2017-08-19T11:33:28.088Z,38.39
2017-08-19T11:34:28.097Z,38.68
2017-08-19T11:35:28.097Z,40.40
2017-08-19T11:36:28.201Z,39.84
2017-08-19T11:37:28.106Z,41.18
2017-08-19T11:38:28.581Z,40.40
2017-08-19T11:39:28.522Z,42.23
2017-08-19T11:40:28.526Z,41.66
2017-08-19T11:41:28.617Z,43.18
2017-08-19T11:42:28.561Z,44.76
2017-08-19T11:43:28.525Z,41.92
2017-08-19T11:44:28.581Z,43.44
2017-08-19T11:45:28.556Z,40.94
2017-08-19T11:46:28.658Z,41.34
2017-08-19T11:47:28.165Z,42.38
2017-08-19T11:48:28.193Z,40.78
2017-08-19T11:49:28.164Z,43.22
2017-08-19T11:50:28.144Z,39.64
2017-08-19T11:51:28.297Z,40.35
2017-08-19T11:52:28.148Z,42.89
2017-08-19T11:53:28.130Z,37.80
2017-08-19T11:54:28.217Z,43.80
2017-08-19T11:55:28.579Z,37.16
2017-08-19T11:56:28.774Z,40.09
2017-08-19T11:57:28.577Z,42.58
2017-08-19T11:58:28.602Z,43.48
2017-08-19T11:59:28.699Z,42.64
2017-08-19T12:00:28.563Z,43.62
2017-08-19T12:01:28.670Z,44.09
2017-08-19T12:02:28.137Z,43.98
2017-08-19T12:03:28.212Z,43.65
2017-08-19T12:04:28.212Z,41.10
2017-08-19T12:05:28.187Z,42.43
2017-08-19T12:06:28.249Z,42.36
2017-08-19T12:07:28.209Z,44.74
2017-08-19T12:08:28.163Z,43.56
2017-08-19T12:09:28.218Z,44.22
2017-08-19T12:10:28.271Z,45.57
2017-08-19T12:11:28.633Z,43.99
2017-08-19T12:12:28.602Z,41.35
2017-08-19T12:13:28.665Z,44.03
2017-08-19T12:14:28.629Z,43.08
2017-08-19T12:15:28.643Z,45.09
2017-08-19T12:16:28.683Z,43.14
2017-08-19T12:17:28.697Z,43.79
2017-08-19T12:18:28.623Z,41.18
2017-08-19T12:19:28.665Z,41.30
2017-08-19T12:20:28.196Z,44.39
2017-08-19T12:21:28.267Z,44.38
2017-08-19T12:22:28.235Z,40.79
2017-08-19T12:23:28.229Z,43.64
2017-08-19T12:24:28.318Z,44.27
2017-08-19T12:25:28.219Z,44.91
2017-08-19T12:26:28.738Z,42.98
2017-08-19T12:27:28.710Z,41.65
2017-08-19T12:28:28.645Z,42.92
2017-08-19T12:29:28.679Z,46.03
2017-08-19T12:30:28.750Z,44.26
2017-08-19T12:31:28.762Z,40.05
2017-08-19T12:32:28.656Z,41.80
2017-08-19T12:33:28.734Z,41.15
2017-08-19T12:34:28.737Z,45.31
2017-08-19T12:35:28.256Z,42.42
2017-08-19T12:36:28.789Z,45.05
2017-08-19T12:37:28.317Z,45.54
2017-08-19T12:38:28.351Z,43.11
2017-08-19T12:39:28.382Z,41.37
2017-08-19T12:40:28.334Z,41.25
2017-08-19T12:41:28.416Z,42.71
2017-08-19T12:42:28.335Z,43.46
2017-08-19T12:43:28.355Z,45.24
2017-08-19T12:44:28.753Z,44.83
2017-08-19T12:45:28.725Z,51.83
2017-08-19T12:46:28.777Z,46.89
2017-08-19T12:47:28.688Z,43.16
2017-08-19T12:48:28.721Z,47.65
2017-08-19T12:49:28.776Z,44.61
2017-08-19T12:50:28.759Z,44.26
2017-08-19T12:51:28.791Z,42.06
2017-08-19T12:52:31.925Z,46.54
2017-08-19T12:53:28.343Z,45.61
2017-08-19T12:54:28.774Z,43.88
2017-08-19T12:55:28.396Z,51.19
2017-08-19T12:56:28.324Z,44.65
2017-08-19T12:57:28.394Z,43.29
2017-08-19T12:58:28.401Z,43.50
2017-08-19T12:59:28.375Z,44.02
2017-08-19T13:00:28.859Z,43.80
2017-08-19T13:01:28.781Z,43.44
2017-08-19T13:02:28.810Z,42.46
2017-08-19T13:03:28.810Z,44.33
2017-08-19T13:04:28.831Z,45.53
2017-08-19T13:05:28.781Z,42.56
2017-08-19T13:06:28.814Z,43.21
2017-08-19T13:07:28.832Z,42.92
2017-08-19T13:08:28.340Z,47.17
2017-08-19T13:09:28.347Z,41.12
2017-08-19T13:10:28.412Z,43.66
2017-08-19T13:11:28.407Z,42.42
2017-08-19T13:12:28.381Z,41.90
2017-08-19T13:13:28.471Z,41.66
2017-08-19T13:14:28.368Z,43.48
2017-08-19T13:15:28.432Z,42.28
2017-08-19T13:16:28.396Z,43.61
2017-08-19T13:17:28.796Z,44.17
2017-08-19T13:18:28.837Z,46.12
2017-08-19T13:19:28.857Z,45.95
2017-08-19T13:20:28.808Z,46.52
2017-08-19T13:21:28.845Z,46.73
2017-08-19T13:22:28.856Z,49.36
2017-08-19T13:23:28.866Z,45.94
2017-08-19T13:24:28.904Z,48.01
2017-08-19T13:25:28.431Z,48.31
2017-08-19T13:26:28.466Z,46.13
2017-08-19T13:27:28.417Z,47.03
2017-08-19T13:28:28.455Z,47.18
2017-08-19T13:29:28.499Z,46.30
2017-08-19T13:30:28.478Z,46.41
2017-08-19T13:31:28.427Z,50.34
2017-08-19T13:32:28.818Z,49.74
2017-08-19T13:33:28.885Z,46.27
2017-08-19T13:34:28.868Z,49.55
2017-08-19T13:35:28.860Z,45.79
2017-08-19T13:36:29.020Z,48.34
2017-08-19T13:37:28.893Z,47.91
2017-08-19T13:38:28.854Z,46.26
2017-08-19T13:39:28.921Z,46.25
2017-08-19T13:40:28.865Z,51.09
2017-08-19T13:41:28.885Z,52.38
2017-08-19T13:42:28.444Z,53.61
2017-08-19T13:43:28.510Z,54.21
2017-08-19T13:44:28.448Z,54.94
2017-08-19T13:45:28.562Z,47.48
2017-08-19T13:46:28.510Z,47.64
2017-08-19T13:47:28.547Z,47.15
2017-08-19T13:48:28.486Z,52.15
2017-08-19T13:49:28.918Z,51.63
2017-08-19T13:50:28.888Z,50.75
2017-08-19T13:51:28.928Z,55.58
2017-08-19T13:52:28.933Z,49.57
2017-08-19T13:53:28.918Z,52.41
2017-08-19T13:54:28.930Z,55.89
2017-08-19T13:55:28.887Z,53.18
2017-08-19T13:56:28.980Z,53.99
2017-08-19T13:57:28.969Z,57.47
2017-08-19T13:58:28.473Z,57.13
2017-08-19T13:59:28.482Z,53.49
2017-08-19T14:00:28.600Z,52.63
2017-08-19T14:01:28.521Z,52.08
2017-08-19T14:02:28.582Z,50.34
2017-08-19T14:03:28.550Z,52.42
2017-08-19T14:04:28.505Z,47.05
2017-08-19T14:05:29.044Z,45.83
2017-08-19T14:06:29.008Z,46.75
2017-08-19T14:07:28.947Z,48.24
2017-08-19T14:08:28.963Z,53.79
2017-08-19T14:09:28.918Z,49.16
2017-08-19T14:10:28.959Z,48.89
2017-08-19T14:11:29.080Z,51.67
2017-08-19T14:12:28.935Z,50.94
2017-08-19T14:13:28.976Z,54.11
2017-08-19T14:14:28.565Z,50.56
2017-08-19T14:15:28.616Z,50.81
2017-08-19T14:16:28.680Z,49.96
2017-08-19T14:17:28.643Z,51.05
2017-08-19T14:18:28.610Z,46.84
2017-08-19T14:19:28.645Z,48.00
2017-08-19T14:20:28.683Z,50.98
2017-08-19T14:21:28.631Z,52.39
2017-08-19T14:22:28.970Z,51.88
2017-08-19T14:23:28.998Z,46.78
2017-08-19T14:24:29.049Z,51.27
2017-08-19T14:25:29.022Z,47.70
2017-08-19T14:26:28.979Z,49.54
2017-08-19T14:27:28.957Z,49.28
2017-08-19T14:28:29.128Z,52.11
2017-08-19T14:29:29.008Z,53.46
2017-08-19T14:30:29.127Z,50.03
2017-08-19T14:31:28.619Z,51.66
2017-08-19T14:32:28.692Z,50.19
2017-08-19T14:33:28.605Z,51.10
2017-08-19T14:34:28.617Z,49.64
2017-08-19T14:35:28.688Z,52.06
2017-08-19T14:36:28.685Z,54.92
2017-08-19T14:37:28.671Z,53.34
2017-08-19T14:38:28.927Z,52.35
2017-08-19T14:39:28.647Z,49.73
2017-08-19T14:40:29.076Z,51.41
2017-08-19T14:41:29.044Z,51.05
2017-08-19T14:42:29.184Z,52.03
2017-08-19T14:43:29.040Z,53.01
2017-08-19T14:44:29.071Z,52.20
2017-08-19T14:45:29.143Z,52.64
2017-08-19T14:46:29.065Z,56.57
2017-08-19T14:47:29.188Z,50.49
2017-08-19T14:48:28.652Z,47.84
2017-08-19T14:49:28.671Z,48.54
2017-08-19T14:50:28.689Z,47.78
2017-08-19T14:51:28.749Z,48.31
2017-08-19T14:52:28.656Z,53.00
2017-08-19T14:53:28.666Z,52.47
2017-08-19T14:54:28.693Z,57.83
2017-08-19T14:55:29.149Z,51.37
2017-08-19T14:56:29.190Z,58.97
2017-08-19T14:57:29.111Z,54.96
2017-08-19T14:58:29.125Z,55.90
2017-08-19T14:59:29.131Z,58.03
2017-08-19T15:00:29.146Z,53.69
2017-08-19T15:01:29.103Z,54.26
2017-08-19T15:02:29.248Z,57.38
2017-08-19T15:03:28.712Z,54.64
2017-08-19T15:04:28.786Z,56.52
2017-08-19T15:05:28.740Z,54.88
2017-08-19T15:06:28.771Z,56.13
2017-08-19T15:07:28.825Z,48.95
2017-08-19T15:08:28.684Z,50.02
2017-08-19T15:09:28.715Z,48.69
2017-08-19T15:10:29.153Z,52.67
2017-08-19T15:11:29.183Z,55.38
2017-08-19T15:12:29.267Z,54.80
2017-08-19T15:13:29.131Z,53.98
2017-08-19T15:14:29.125Z,55.91
2017-08-19T15:15:29.176Z,52.85
2017-08-19T15:16:29.169Z,52.30
2017-08-19T15:17:29.272Z,55.17
2017-08-19T15:18:29.201Z,56.28
2017-08-19T15:19:28.728Z,51.83
2017-08-19T15:20:28.748Z,53.03
2017-08-19T15:21:28.763Z,50.86
2017-08-19T15:22:28.773Z,50.69
2017-08-19T15:23:28.774Z,50.22
2017-08-19T15:24:28.789Z,50.17
2017-08-19T15:25:28.816Z,49.79
2017-08-19T15:26:28.804Z,48.59
2017-08-19T15:27:29.207Z,50.12
2017-08-19T15:28:29.191Z,54.60
2017-08-19T15:29:29.218Z,52.03